Time;durP1;ratioP1;P1;durP2;ratioP2;P2;SDS_P1;SDS_P2;PMS_P1;PMS_P2;Temp;Humidity;BMP_temperature;BMP_pressure;BME280_temperature;BME280_humidity;BME280_pressure;Samples;Min_cycle;Max_cycle;Signal;HPM_P1;HPM_P2
2024/02/21 00:01:21;;;;;;;6.47;4.20;;;;;;;6.52;61.96;95618.69;5088979;28;20097;-81
2024/02/21 00:03:46;;;;;;;4.80;3.95;;;;;;;6.40;62.14;95616.38;5089658;28;20020;-80
2024/02/21 00:06:12;;;;;;;5.68;3.67;;;;;;;6.42;62.54;95622.22;5071231;28;20022;-78
2024/02/21 00:08:37;;;;;;;5.30;4.10;;;;;;;6.32;62.54;95609.38;5088905;28;20055;-79
2024/02/21 00:11:03;;;;;;;5.88;3.90;;;;;;;6.36;62.75;95615.59;5089482;28;20043;-80
2024/02/21 00:13:28;;;;;;;8.15;4.28;;;;;;;6.33;62.39;95608.19;5088815;28;20016;-79
2024/02/21 00:15:54;;;;;;;6.88;4.38;;;;;;;6.37;62.56;95620.69;5071039;28;20055;-79
2024/02/21 00:18:19;;;;;;;6.45;4.20;;;;;;;6.35;62.88;95617.53;5088461;28;20043;-79
2024/02/21 00:20:45;;;;;;;6.07;4.50;;;;;;;6.37;62.62;95614.44;5089167;28;20032;-79
2024/02/21 00:23:10;;;;;;;5.47;4.22;;;;;;;6.45;62.21;95615.19;5089111;28;20470;-80
2024/02/21 00:25:35;;;;;;;6.65;4.07;;;;;;;6.42;62.23;95622.22;5088636;28;20461;-80
2024/02/21 00:28:01;;;;;;;5.60;4.10;;;;;;;6.40;62.50;95605.44;5088419;28;20119;-79
2024/02/21 00:30:27;;;;;;;6.38;4.13;;;;;;;6.42;62.84;95621.44;5088476;28;20081;-78
2024/02/21 00:32:52;;;;;;;5.80;4.00;;;;;;;6.41;62.55;95617.16;5089122;28;20507;-79
2024/02/21 00:35:18;;;;;;;6.60;4.38;;;;;;;6.30;62.57;95607.03;5088410;28;20031;-79
2024/02/21 00:37:43;;;;;;;5.30;3.97;;;;;;;6.29;62.62;95602.72;5089195;28;20073;-79
2024/02/21 00:40:09;;;;;;;6.05;4.53;;;;;;;6.39;62.79;95618.31;5088381;28;20028;-79
2024/02/21 00:42:34;;;;;;;6.35;4.90;;;;;;;6.46;62.34;95611.28;5088978;28;20032;-79
2024/02/21 00:44:59;;;;;;;6.88;4.50;;;;;;;6.41;62.45;95617.94;5088720;28;20481;-78
2024/02/21 00:47:25;;;;;;;6.55;4.63;;;;;;;6.37;62.67;95609.75;5088426;28;20016;-80
2024/02/21 00:49:50;;;;;;;5.45;3.92;;;;;;;6.45;62.48;95612.47;5088281;28;20100;-79
2024/02/21 00:52:16;;;;;;;7.38;4.35;;;;;;;6.45;62.31;95596.84;5069137;28;20028;-79
2024/02/21 00:54:41;;;;;;;6.75;4.47;;;;;;;6.44;62.31;95603.50;5088542;28;20071;-79
2024/02/21 00:57:06;;;;;;;6.05;3.95;;;;;;;6.36;62.47;95597.25;5087201;28;20024;-78
2024/02/21 00:59:32;;;;;;;6.22;4.63;;;;;;;6.38;62.43;95589.47;5088711;28;20028;-78
2024/02/21 01:01:57;;;;;;;5.93;4.32;;;;;;;6.35;62.43;95589.47;5087547;28;20052;-79
2024/02/21 01:04:24;;;;;;;5.72;4.30;;;;;;;6.38;62.54;95584.00;5088235;28;20035;-79
2024/02/21 01:06:49;;;;;;;6.38;4.38;;;;;;;6.36;62.65;95583.59;5087992;28;20030;-78
2024/02/21 01:09:15;;;;;;;6.40;4.38;;;;;;;6.35;62.65;95584.00;5087915;28;20020;-78
2024/02/21 01:11:40;;;;;;;7.10;4.53;;;;;;;6.41;62.40;95585.16;5088661;28;20024;-78
2024/02/21 01:14:06;;;;;;;5.15;3.70;;;;;;;6.41;62.50;95584.38;5087728;28;20052;-78
2024/02/21 01:16:31;;;;;;;6.03;4.40;;;;;;;6.41;62.42;95579.69;5088675;28;20016;-80
2024/02/21 01:18:57;;;;;;;5.43;4.20;;;;;;;6.39;62.59;95574.63;5087261;28;20111;-78
2024/02/21 01:21:22;;;;;;;6.55;4.20;;;;;;;6.41;62.59;95581.66;5088181;28;20024;-79
2024/02/21 01:23:48;;;;;;;5.78;4.50;;;;;;;6.41;62.32;95576.97;5087273;28;20500;-80
2024/02/21 01:26:15;;;;;;;5.65;3.95;;;;;;;6.42;62.62;95578.50;5069243;28;20077;-79
2024/02/21 01:28:41;;;;;;;7.57;4.75;;;;;;;6.42;62.67;95570.31;5087590;28;20038;-78
2024/02/21 01:31:07;;;;;;;5.70;4.43;;;;;;;6.41;62.77;95574.22;5069147;28;20048;-79
2024/02/21 01:33:34;;;;;;;6.82;4.53;;;;;;;6.36;62.63;95575.41;5087933;28;20111;-79
2024/02/21 01:36:03;;;;;;;7.35;4.75;;;;;;;6.41;62.64;95568.75;5068541;28;20178;-79
2024/02/21 01:38:29;;;;;;;6.55;4.60;;;;;;;6.46;62.43;95562.91;5087869;28;20027;-78
2024/02/21 01:40:55;;;;;;;5.97;4.03;;;;;;;6.43;62.50;95565.66;5087093;28;20119;-78
2024/02/21 01:43:20;;;;;;;6.47;4.32;;;;;;;6.42;62.32;95556.66;5087507;28;20031;-80
2024/02/21 01:45:51;;;;;;;5.10;3.80;;;;;;;6.39;62.72;95560.97;5087061;28;20017;-78
2024/02/21 01:48:20;;;;;;;5.43;4.38;;;;;;;6.40;62.45;95559.03;5086475;28;20428;-78
2024/02/21 01:50:46;;;;;;;5.40;4.22;;;;;;;6.39;62.63;95552.78;5069143;28;20115;-79
2024/02/21 01:53:17;;;;;;;6.20;4.30;;;;;;;6.39;62.47;95543.81;5087029;28;20528;-78
2024/02/21 01:55:46;;;;;;;6.35;4.28;;;;;;;6.39;62.60;95546.53;5087290;28;20020;-77
2024/02/21 01:58:13;;;;;;;5.38;4.32;;;;;;;6.52;61.97;95552.34;5068221;28;20032;-78
2024/02/21 02:00:42;;;;;;;6.28;3.80;;;;;;;6.55;61.78;95555.09;5086689;28;20498;-78
2024/02/21 02:03:09;;;;;;;5.97;4.65;;;;;;;6.53;61.46;95551.16;5087340;28;20031;-78
2024/02/21 02:05:35;;;;;;;6.43;4.47;;;;;;;6.50;61.45;95552.75;5067980;28;20020;-77
2024/02/21 02:08:01;;;;;;;6.45;4.65;;;;;;;6.48;61.59;95546.09;5069080;28;20437;-78
2024/02/21 02:10:26;;;;;;;6.90;4.65;;;;;;;6.47;61.55;95547.28;5086821;28;20032;-77
2024/02/21 02:12:52;;;;;;;7.60;5.47;;;;;;;6.49;61.38;95545.72;5086783;28;20435;-79
2024/02/21 02:15:18;;;;;;;8.00;5.90;;;;;;;6.46;61.55;95551.97;5086791;28;20107;-79
2024/02/21 02:17:43;;;;;;;6.97;6.00;;;;;;;6.46;61.52;95551.19;5086726;28;20410;-78
2024/02/21 02:20:09;;;;;;;7.43;5.68;;;;;;;6.36;61.82;95545.38;5086865;28;20085;-79
2024/02/21 02:22:37;;;;;;;8.05;5.40;;;;;;;6.39;61.65;95539.13;5086411;28;20020;-79
2024/02/21 02:25:03;;;;;;;7.13;5.20;;;;;;;6.36;61.83;95536.41;5068383;28;20020;-80
2024/02/21 02:27:28;;;;;;;7.78;5.45;;;;;;;6.35;61.67;95543.81;5085805;28;20486;-79
2024/02/21 02:29:54;;;;;;;8.10;5.57;;;;;;;6.36;61.72;95539.13;5086750;28;20038;-77
2024/02/21 02:32:19;;;;;;;8.60;6.47;;;;;;;6.32;61.57;95527.47;5085923;28;20184;-79
2024/02/21 02:34:44;;;;;;;7.32;5.57;;;;;;;6.42;61.53;95534.81;5086334;28;20036;-78
2024/02/21 02:37:10;;;;;;;8.80;6.15;;;;;;;6.42;61.55;95534.81;5085977;28;20108;-79
2024/02/21 02:39:35;;;;;;;9.50;5.78;;;;;;;6.36;61.52;95536.41;5086349;28;20478;-79
2024/02/21 02:42:01;;;;;;;8.32;5.97;;;;;;;6.36;61.59;95536.41;5085959;28;20032;-78
2024/02/21 02:44:27;;;;;;;8.23;6.10;;;;;;;6.36;61.63;95531.72;5086018;28;20493;-79
2024/02/21 02:46:52;;;;;;;8.13;5.82;;;;;;;6.40;61.53;95537.16;5086729;28;20032;-79
2024/02/21 02:49:17;;;;;;;8.38;5.85;;;;;;;6.44;61.50;95532.47;5085282;28;20220;-79
2024/02/21 02:51:43;;;;;;;8.48;6.55;;;;;;;6.37;61.74;95532.50;5086023;28;20027;-79
2024/02/21 02:54:09;;;;;;;8.23;5.88;;;;;;;6.39;61.96;95538.34;5085801;28;20039;-78
2024/02/21 02:56:34;;;;;;;8.45;6.43;;;;;;;6.40;61.47;95537.16;5067459;28;20036;-79
2024/02/21 02:59:00;;;;;;;10.98;6.75;;;;;;;6.35;61.60;95535.63;5085468;28;20043;-79
2024/02/21 03:01:25;;;;;;;7.65;6.13;;;;;;;6.43;61.37;95535.63;5085237;28;20406;-78
2024/02/21 03:03:50;;;;;;;9.18;6.68;;;;;;;6.45;61.30;95538.72;5085875;28;20020;-78
2024/02/21 03:06:16;;;;;;;7.78;5.93;;;;;;;6.49;61.07;95540.28;5085217;28;20031;-78
2024/02/21 03:08:42;;;;;;;9.05;7.00;;;;;;;6.52;61.18;95536.75;5086010;28;20490;-79
2024/02/21 03:11:08;;;;;;;7.93;6.20;;;;;;;6.49;61.11;95537.53;5085120;28;20034;-78
2024/02/21 03:13:34;;;;;;;9.05;6.47;;;;;;;6.41;61.29;95537.94;5085154;28;20028;-78
2024/02/21 03:15:59;;;;;;;11.13;6.40;;;;;;;6.39;61.63;95541.84;5085451;28;20028;-79
2024/02/21 03:18:24;;;;;;;9.85;7.20;;;;;;;6.36;61.56;95544.59;5085505;28;20517;-79
2024/02/21 03:20:50;;;;;;;9.43;6.53;;;;;;;6.36;61.51;95542.63;5086061;28;20035;-80
2024/02/21 03:23:15;;;;;;;12.40;6.93;;;;;;;6.50;61.00;95550.03;5085485;28;20482;-78
2024/02/21 03:25:41;;;;;;;10.98;6.95;;;;;;;6.48;60.83;95555.09;5086446;28;20492;-78
2024/02/21 03:28:06;;;;;;;9.23;7.07;;;;;;;6.43;61.08;95546.53;5085311;28;20463;-78
2024/02/21 03:30:31;;;;;;;9.82;6.93;;;;;;;6.38;61.13;95547.72;5085853;28;20032;-80
2024/02/21 03:32:57;;;;;;;10.18;6.70;;;;;;;6.37;61.24;95559.81;5084564;28;20035;-80
2024/02/21 03:35:26;;;;;;;9.43;6.55;;;;;;;6.36;61.17;95556.28;5084832;28;20028;-79
2024/02/21 03:37:51;;;;;;;9.70;6.45;;;;;;;6.35;61.16;95562.94;5069210;28;20028;-79
2024/02/21 03:40:17;;;;;;;10.20;7.15;;;;;;;6.34;61.15;95561.38;5084650;28;20038;-79
2024/02/21 03:42:42;;;;;;;10.27;7.22;;;;;;;6.35;61.08;95557.47;5085575;28;20437;-80
2024/02/21 03:45:08;;;;;;;8.95;6.30;;;;;;;6.36;61.19;95563.69;5066745;28;20472;-80
2024/02/21 03:47:33;;;;;;;9.18;7.22;;;;;;;6.34;61.06;95558.63;5085943;28;20494;-79
2024/02/21 03:49:59;;;;;;;9.30;6.63;;;;;;;6.32;61.20;95557.50;5084825;28;20035;-78
2024/02/21 03:52:25;;;;;;;10.43;7.60;;;;;;;6.36;60.96;95564.47;5085796;28;20059;-78
2024/02/21 03:54:50;;;;;;;9.98;6.85;;;;;;;6.28;61.27;95570.38;5085786;28;20095;-78
2024/02/21 03:57:17;;;;;;;9.70;6.70;;;;;;;6.27;61.04;95571.53;5084855;28;20413;-78
2024/02/21 03:59:42;;;;;;;9.82;6.78;;;;;;;6.19;61.17;95559.06;5085813;28;20020;-78
2024/02/21 04:02:08;;;;;;;9.98;6.93;;;;;;;6.22;61.20;95570.00;5084521;28;20044;-77
2024/02/21 04:04:37;;;;;;;8.65;7.00;;;;;;;6.20;61.43;95561.41;5085788;28;20039;-80
2024/02/21 04:07:06;;;;;;;10.18;7.40;;;;;;;6.25;61.48;95562.94;5085161;28;20081;-79
2024/02/21 04:09:32;;;;;;;10.23;7.68;;;;;;;6.21;61.34;95562.19;5085617;28;20016;-78
2024/02/21 04:11:57;;;;;;;11.32;6.88;;;;;;;6.19;61.42;95556.34;5085046;28;20069;-78
2024/02/21 04:14:23;;;;;;;10.05;7.30;;;;;;;6.16;61.40;95571.56;5084981;28;20036;-79
2024/02/21 04:16:48;;;;;;;10.70;7.40;;;;;;;6.17;61.39;95566.88;5084831;28;20103;-78
2024/02/21 04:19:13;;;;;;;9.93;7.10;;;;;;;6.17;61.56;95561.41;5085078;28;20402;-77
2024/02/21 04:21:39;;;;;;;10.82;7.28;;;;;;;6.18;61.30;95558.28;5085522;28;20085;-79
2024/02/21 04:24:05;;;;;;;10.50;7.57;;;;;;;6.19;61.17;95559.06;5084773;28;20147;-79
2024/02/21 04:26:30;;;;;;;10.90;7.88;;;;;;;6.17;61.36;95564.16;5085325;28;20071;-78
2024/02/21 04:28:56;;;;;;;9.23;7.43;;;;;;;6.11;61.35;95556.34;5069874;28;20048;-79
2024/02/21 04:31:21;;;;;;;9.23;7.20;;;;;;;6.17;61.45;95566.88;5088933;28;20032;-78
2024/02/21 04:33:47;;;;;;;9.68;7.20;;;;;;;6.13;61.66;95567.66;5088092;28;20020;-79
2024/02/21 04:36:12;;;;;;;11.20;7.72;;;;;;;6.14;61.41;95563.00;5088291;28;20041;-79
2024/02/21 04:38:39;;;;;;;13.30;8.40;;;;;;;6.06;61.75;95567.66;5089154;28;20057;-79
2024/02/21 04:41:04;;;;;;;10.50;7.88;;;;;;;6.00;61.80;95565.72;5088227;28;20028;-79
2024/02/21 04:43:29;;;;;;;10.40;7.13;;;;;;;6.02;61.70;95566.91;5089675;28;20028;-79
2024/02/21 04:45:55;;;;;;;11.48;8.55;;;;;;;6.01;61.91;95573.53;5088001;28;20032;-77
2024/02/21 04:48:20;;;;;;;12.43;7.90;;;;;;;6.01;61.85;95570.78;5088883;28;20110;-79
2024/02/21 04:50:46;;;;;;;12.32;8.35;;;;;;;5.91;62.04;95559.84;5088628;28;20085;-78
2024/02/21 04:53:11;;;;;;;10.88;8.10;;;;;;;5.89;62.24;95559.47;5088667;28;20080;-79
2024/02/21 04:55:37;;;;;;;13.07;8.43;;;;;;;5.83;62.48;95561.81;5088329;28;20344;-79
2024/02/21 04:58:02;;;;;;;13.45;9.32;;;;;;;5.91;62.38;95573.50;5069470;28;20019;-79
2024/02/21 05:00:28;;;;;;;12.20;8.05;;;;;;;5.85;62.56;95562.22;5089305;28;20068;-79
2024/02/21 05:02:53;;;;;;;12.00;7.97;;;;;;;5.79;62.73;95552.84;5087389;28;20040;-79
2024/02/21 05:05:19;;;;;;;13.68;9.07;;;;;;;5.86;62.52;95563.78;5088779;28;20028;-80
2024/02/21 05:07:44;;;;;;;12.27;8.38;;;;;;;5.87;62.52;95565.31;5087823;28;20426;-80
2024/02/21 05:10:10;;;;;;;12.77;8.75;;;;;;;5.87;62.68;95573.50;5087870;28;20445;-81
2024/02/21 05:12:35;;;;;;;14.82;9.65;;;;;;;5.92;62.40;95581.34;5088195;28;20555;-81
2024/02/21 05:15:02;;;;;;;12.40;8.65;;;;;;;5.91;62.42;95581.69;5069502;28;20521;-79
2024/02/21 05:17:28;;;;;;;13.77;9.10;;;;;;;5.85;62.51;95578.59;5070485;28;20017;-80
2024/02/21 05:19:53;;;;;;;17.02;11.68;;;;;;;5.90;62.44;95588.31;5087410;28;20383;-79
2024/02/21 05:22:18;;;;;;;18.67;12.40;;;;;;;5.95;62.47;95585.22;5088938;28;20042;-79
2024/02/21 05:24:44;;;;;;;16.35;11.07;;;;;;;5.97;62.22;95583.69;5087512;28;20098;-80
2024/02/21 05:27:09;;;;;;;21.63;14.55;;;;;;;5.93;62.44;95585.63;5087666;28;20024;-78
2024/02/21 05:29:35;;;;;;;17.15;10.77;;;;;;;5.92;62.57;95575.88;5087171;28;20406;-80
2024/02/21 05:32:00;;;;;;;14.52;10.57;;;;;;;5.91;62.17;95578.94;5087521;28;20070;-78
2024/02/21 05:34:26;;;;;;;14.13;9.07;;;;;;;5.89;62.44;95573.13;5088080;28;20039;-79
2024/02/21 05:36:52;;;;;;;12.70;9.05;;;;;;;5.95;62.34;95583.28;5087027;28;20048;-79
2024/02/21 05:39:18;;;;;;;11.63;8.25;;;;;;;6.00;62.08;95584.84;5087168;28;20027;-78
2024/02/21 05:41:43;;;;;;;12.40;9.15;;;;;;;6.04;61.79;95580.16;5069000;28;20036;-78
2024/02/21 05:44:08;;;;;;;12.63;9.23;;;;;;;6.02;61.73;95577.81;5087694;28;20306;-81
2024/02/21 05:46:34;;;;;;;12.60;8.90;;;;;;;6.02;61.96;95577.03;5086871;28;20021;-86
2024/02/21 05:49:00;;;;;;;12.77;8.88;;;;;;;6.00;61.89;95587.56;5069399;28;20036;-81
2024/02/21 05:51:25;;;;;;;11.50;8.52;;;;;;;6.04;61.55;95591.84;5087448;28;20581;-79
2024/02/21 05:53:50;;;;;;;15.25;10.23;;;;;;;6.08;61.24;95583.69;5087418;28;20020;-82
2024/02/21 05:56:17;;;;;;;13.52;9.15;;;;;;;6.12;61.28;95595.34;5087291;28;20063;-80
2024/02/21 05:58:43;;;;;;;13.05;9.35;;;;;;;6.17;61.16;95599.63;5085481;28;20020;-79
2024/02/21 06:01:08;;;;;;;12.45;9.13;;;;;;;6.22;60.94;95602.75;5086187;28;20178;-80
2024/02/21 06:03:34;;;;;;;13.70;9.77;;;;;;;6.31;60.71;95597.69;5086193;28;20032;-81
2024/02/21 06:06:04;;;;;;;12.25;8.60;;;;;;;6.37;60.39;95598.84;5086951;28;20024;-81
2024/02/21 06:08:30;;;;;;;15.15;9.90;;;;;;;6.40;60.20;95594.53;5087241;28;20487;-80
2024/02/21 06:10:55;;;;;;;15.20;9.40;;;;;;;6.45;60.15;95599.59;5086790;28;20028;-81
2024/02/21 06:13:23;;;;;;;13.80;9.63;;;;;;;6.47;59.95;95602.69;5087276;28;20047;-81
2024/02/21 06:15:50;;;;;;;13.10;8.82;;;;;;;6.51;60.08;95608.94;5086193;28;20030;-80
2024/02/21 06:18:18;;;;;;;14.75;9.63;;;;;;;6.62;59.62;95614.38;5086847;28;20028;-80
2024/02/21 06:20:43;;;;;;;14.25;9.70;;;;;;;6.70;59.40;95615.91;5082403;28;20032;-81
2024/02/21 06:23:09;;;;;;;14.27;8.88;;;;;;;6.74;59.27;95610.44;5068855;28;20404;-80
2024/02/21 06:25:34;;;;;;;14.75;9.40;;;;;;;6.86;58.97;95612.72;5086435;28;20020;-81
2024/02/21 06:27:59;;;;;;;13.32;9.93;;;;;;;7.03;58.42;95617.34;5067837;28;20032;-80
2024/02/21 06:30:25;;;;;;;15.38;9.68;;;;;;;7.06;58.34;95621.25;5086251;28;20031;-79
2024/02/21 06:32:50;;;;;;;13.23;9.20;;;;;;;7.10;58.41;95628.25;5086633;28;20405;-82
2024/02/21 06:35:16;;;;;;;14.98;9.45;;;;;;;7.23;57.76;95625.09;5086928;28;20059;-81
2024/02/21 06:37:42;;;;;;;14.25;9.75;;;;;;;7.32;57.61;95631.66;5085987;28;20504;-80
2024/02/21 06:40:07;;;;;;;13.18;8.35;;;;;;;7.44;56.86;95631.19;5086994;28;20028;-80
2024/02/21 06:42:33;;;;;;;12.70;9.02;;;;;;;7.53;56.70;95638.22;5086207;28;20098;-80
2024/02/21 06:44:58;;;;;;;13.93;9.43;;;;;;;7.52;56.53;95628.44;5086605;28;20028;-79
2024/02/21 06:47:24;;;;;;;12.73;9.32;;;;;;;7.59;56.60;95634.66;5086371;28;20020;-80
2024/02/21 06:49:50;;;;;;;13.20;9.20;;;;;;;7.73;55.95;95636.50;5067573;28;20402;-81
2024/02/21 06:52:19;;;;;;;16.65;10.15;;;;;;;7.75;55.88;95634.16;5068737;28;20024;-79
2024/02/21 06:54:46;;;;;;;14.48;9.95;;;;;;;7.76;56.04;95635.72;5086148;28;20024;-82
2024/02/21 06:57:11;;;;;;;13.68;9.70;;;;;;;7.76;56.07;95640.41;5086256;28;20015;-81
2024/02/21 06:59:36;;;;;;;14.85;10.38;;;;;;;7.86;56.24;95642.31;5085822;28;20024;-81
2024/02/21 07:02:02;;;;;;;15.48;10.07;;;;;;;7.88;56.01;95642.66;5086466;28;20075;-80
2024/02/21 07:04:29;;;;;;;13.90;9.40;;;;;;;7.87;56.11;95644.63;5086226;28;20043;-81
2024/02/21 07:06:54;;;;;;;15.05;9.85;;;;;;;7.91;56.00;95639.91;5085621;28;20993;-80
2024/02/21 07:09:20;;;;;;;16.67;11.20;;;;;;;7.92;56.07;95644.22;5086515;28;20106;-79
2024/02/21 07:11:45;;;;;;;16.38;10.18;;;;;;;7.99;55.91;95652.38;5085915;28;20086;-80
2024/02/21 07:14:10;;;;;;;16.10;10.70;;;;;;;8.05;55.85;95646.47;5086326;28;20265;-80
2024/02/21 07:16:36;;;;;;;17.08;11.25;;;;;;;8.18;55.31;95650.25;5085620;28;20024;-80
2024/02/21 07:19:02;;;;;;;16.58;11.45;;;;;;;8.17;55.34;95640.50;5085873;28;20438;-80
2024/02/21 07:21:27;;;;;;;14.82;9.82;;;;;;;8.13;55.20;95643.25;5067215;28;20080;-79
2024/02/21 07:23:53;;;;;;;15.80;10.95;;;;;;;8.14;55.51;95646.75;5067221;28;20040;-81
2024/02/21 07:26:18;;;;;;;14.80;9.30;;;;;;;8.12;55.77;95652.66;5085680;28;20492;-82
2024/02/21 07:28:44;;;;;;;15.95;10.32;;;;;;;8.20;55.72;95651.44;5085994;28;20027;-82
2024/02/21 07:31:09;;;;;;;15.48;10.70;;;;;;;8.24;55.60;95654.91;5086063;28;20028;-80
2024/02/21 07:33:35;;;;;;;14.45;9.98;;;;;;;8.27;55.75;95653.31;5085628;28;20032;-81
2024/02/21 07:36:01;;;;;;;18.15;10.10;;;;;;;8.34;55.81;95655.22;5086388;28;20482;-80
2024/02/21 07:38:26;;;;;;;17.65;9.73;;;;;;;8.36;55.95;95650.13;5084808;28;20016;-79
2024/02/21 07:40:51;;;;;;;16.42;10.73;;;;;;;8.38;56.04;95653.28;5086357;28;20153;-80
2024/02/21 07:43:17;;;;;;;19.27;10.35;;;;;;;8.36;55.93;95645.44;5085294;28;20509;-80
2024/02/21 07:45:42;;;;;;;18.05;12.30;;;;;;;8.40;55.77;95643.44;5085713;28;20016;-81
2024/02/21 07:48:08;;;;;;;18.63;11.65;;;;;;;8.45;55.88;95650.47;5085586;28;20124;-80
2024/02/21 07:50:33;;;;;;;17.75;12.05;;;;;;;8.45;55.87;95661.41;5084674;28;20028;-79
2024/02/21 07:52:59;;;;;;;16.65;11.20;;;;;;;8.43;56.05;95644.59;5067473;28;20069;-81
2024/02/21 07:55:24;;;;;;;17.88;11.75;;;;;;;8.47;55.83;95646.13;5085665;28;20027;-77
2024/02/21 07:57:49;;;;;;;17.70;12.05;;;;;;;8.51;55.99;95655.09;5085676;28;20020;-80
2024/02/21 08:00:19;;;;;;;17.25;11.75;;;;;;;8.59;55.48;95646.78;5085395;28;20653;-79
2024/02/21 08:02:45;;;;;;;18.13;11.93;;;;;;;8.60;55.74;95642.84;5087391;28;20076;-79
2024/02/21 08:05:12;;;;;;;16.98;11.73;;;;;;;8.62;56.03;95646.00;5088766;28;20035;-79
2024/02/21 08:07:38;;;;;;;19.48;12.73;;;;;;;8.74;55.94;95640.00;5071331;28;20028;-79
2024/02/21 08:10:07;;;;;;;19.73;12.70;;;;;;;8.85;55.66;95645.38;5071056;28;20027;-83
2024/02/21 08:12:32;;;;;;;16.40;12.23;;;;;;;8.96;55.55;95637.81;5053987;28;20024;-81
2024/02/21 08:14:58;;;;;;;20.13;12.70;;;;;;;9.19;55.27;95648.09;5089369;28;20042;-79
2024/02/21 08:17:23;;;;;;;19.35;12.75;;;;;;;9.40;54.66;95650.56;5089161;28;20047;-79
2024/02/21 08:19:49;;;;;;;17.05;11.65;;;;;;;9.60;53.75;95650.72;5089073;28;20032;-80
2024/02/21 08:22:14;;;;;;;15.43;10.85;;;;;;;9.72;53.07;95655.63;5088639;28;20086;-80
2024/02/21 08:24:39;;;;;;;15.23;10.13;;;;;;;9.79;52.86;95647.28;5088533;28;20351;-80
2024/02/21 08:27:05;;;;;;;14.70;10.55;;;;;;;9.91;52.39;95645.16;5089106;28;20513;-80
2024/02/21 08:29:31;;;;;;;17.92;11.30;;;;;;;10.01;52.10;95641.50;5088856;28;20063;-80
2024/02/21 08:31:56;;;;;;;18.35;11.05;;;;;;;9.94;51.71;95630.63;5080116;28;20059;-79
2024/02/21 08:34:21;;;;;;;18.00;11.27;;;;;;;10.05;51.78;95645.75;5087583;28;20073;-78
2024/02/21 08:36:47;;;;;;;14.30;10.38;;;;;;;10.12;51.29;95647.59;5089411;28;20028;-79
2024/02/21 08:39:16;;;;;;;12.80;9.70;;;;;;;10.07;51.22;95656.31;5088099;28;20502;-78
2024/02/21 08:41:42;;;;;;;14.82;10.10;;;;;;;10.11;51.16;95646.03;5088750;28;20032;-79
2024/02/21 08:44:07;;;;;;;16.65;11.40;;;;;;;10.08;50.90;95650.38;5070130;28;20028;-78
2024/02/21 08:46:33;;;;;;;14.10;10.63;;;;;;;9.91;50.88;95639.69;5070563;28;20036;-79
2024/02/21 08:48:58;;;;;;;15.45;10.73;;;;;;;9.97;50.97;95649.00;5089147;28;20154;-79
2024/02/21 08:51:23;;;;;;;15.80;10.60;;;;;;;9.90;51.05;95640.88;5052436;28;20032;-79
2024/02/21 08:53:49;;;;;;;14.75;10.45;;;;;;;9.90;50.70;95643.63;5088349;28;20039;-79
2024/02/21 08:56:15;;;;;;;18.10;10.70;;;;;;;9.78;50.78;95647.72;5086443;28;20031;-78
2024/02/21 08:58:41;;;;;;;14.13;9.63;;;;;;;9.67;50.70;95645.13;5070194;28;20608;-78
2024/02/21 09:01:09;;;;;;;14.00;10.18;;;;;;;9.60;50.60;95660.91;5069434;28;20139;-81
2024/02/21 09:03:36;;;;;;;13.55;9.73;;;;;;;9.39;51.02;95656.47;5088024;28;20025;-79
2024/02/21 09:06:01;;;;;;;15.90;10.07;;;;;;;9.32;51.20;95649.13;5087591;28;20119;-80
2024/02/21 09:08:27;;;;;;;13.30;9.15;;;;;;;9.23;51.54;95654.31;5087896;28;20087;-80
2024/02/21 09:10:53;;;;;;;17.35;10.88;;;;;;;9.14;51.96;95654.81;5088814;28;20127;-79
2024/02/21 09:13:18;;;;;;;13.15;10.02;;;;;;;9.07;52.07;95656.88;5087655;28;20056;-78
2024/02/21 09:15:43;;;;;;;15.73;11.25;;;;;;;9.04;52.23;95655.72;5088443;28;20524;-80
2024/02/21 09:18:09;;;;;;;13.07;9.68;;;;;;;8.97;52.41;95650.31;5088005;28;20016;-78
2024/02/21 09:20:34;;;;;;;18.85;11.18;;;;;;;9.00;52.60;95650.28;5070278;28;20024;-79
2024/02/21 09:23:01;;;;;;;12.95;10.30;;;;;;;8.98;52.81;95646.38;5070067;28;20056;-79
2024/02/21 09:25:27;;;;;;;16.10;10.95;;;;;;;8.94;52.87;95656.59;5069618;28;20024;-79
2024/02/21 09:27:53;;;;;;;14.15;10.40;;;;;;;8.98;53.01;95644.41;5088449;28;20117;-80
2024/02/21 09:30:19;;;;;;;16.65;11.82;;;;;;;9.04;52.88;95651.00;5069103;28;20039;-80
2024/02/21 09:32:44;;;;;;;14.98;11.15;;;;;;;9.12;52.89;95657.22;5070396;28;20103;-80
2024/02/21 09:35:10;;;;;;;17.92;11.43;;;;;;;9.17;51.94;95632.03;5087210;28;20028;-78
2024/02/21 09:37:36;;;;;;;16.05;10.90;;;;;;;9.74;51.07;95644.22;5069768;28;20074;-80
2024/02/21 09:40:01;;;;;;;14.13;9.65;;;;;;;10.49;48.76;95638.38;5087355;28;20078;-78
2024/02/21 09:42:47;;;;;;;12.20;9.30;;;;;;;11.95;45.76;95643.72;5087496;28;20467;-79
2024/02/21 09:45:25;;;;;;;11.07;8.93;;;;;;;14.06;41.81;95627.03;5087488;28;20074;-81
2024/02/21 09:48:15;;;;;;;15.13;8.63;;;;;;;15.76;38.04;95641.00;5087076;28;20102;-80
2024/02/21 09:50:43;;;;;;;9.07;7.88;;;;;;;17.27;35.56;95639.28;5087587;28;20036;-79
2024/02/21 09:53:09;;;;;;;11.55;7.93;;;;;;;18.69;32.31;95646.59;5087108;28;20057;-79
2024/02/21 09:55:35;;;;;;;9.07;8.07;;;;;;;19.77;30.82;95636.31;5087036;28;20020;-80
2024/02/21 09:58:04;;;;;;;9.63;8.25;;;;;;;20.52;29.28;95637.78;5087678;28;20112;-81
2024/02/21 10:00:29;;;;;;;8.52;7.47;;;;;;;21.39;28.12;95638.72;5068821;28;20056;-80
2024/02/21 10:02:55;;;;;;;9.00;7.68;;;;;;;22.60;26.54;95638.78;5087569;28;20050;-79
2024/02/21 10:05:21;;;;;;;9.05;7.35;;;;;;;23.25;25.22;95638.13;5086808;28;20038;-80
2024/02/21 10:07:48;;;;;;;8.85;7.10;;;;;;;23.69;24.96;95636.75;5069023;28;20575;-80
2024/02/21 10:10:15;;;;;;;9.43;8.02;;;;;;;23.63;23.94;95642.34;5086952;28;20050;-80
2024/02/21 10:12:57;;;;;;;12.23;8.70;;;;;;;24.07;23.42;95638.06;5087254;28;20024;-79
2024/02/21 10:15:24;;;;;;;9.10;8.10;;;;;;;24.19;23.68;95630.41;5087490;28;20042;-80
2024/02/21 10:17:57;;;;;;;9.48;6.72;;;;;;;24.44;22.78;95635.03;5086526;28;20409;-79
2024/02/21 10:20:23;;;;;;;7.50;6.22;;;;;;;24.78;21.94;95623.75;5087481;28;20028;-82
2024/02/21 10:22:48;;;;;;;9.90;7.85;;;;;;;24.81;21.83;95622.72;5086951;28;20108;-78
2024/02/21 10:25:14;;;;;;;7.03;6.30;;;;;;;25.36;21.37;95623.84;5068254;28;20107;-79
2024/02/21 10:27:40;;;;;;;7.90;5.82;;;;;;;25.81;20.59;95599.03;5068613;28;20107;-80
2024/02/21 10:30:07;;;;;;;7.70;5.68;;;;;;;25.64;20.91;95601.16;5086623;28;20028;-79
2024/02/21 10:32:33;;;;;;;7.07;5.40;;;;;;;25.42;20.91;95596.44;5088109;28;20081;-79
2024/02/21 10:35:05;;;;;;;8.70;6.85;;;;;;;26.08;19.75;95582.44;5086521;28;20445;-79
2024/02/21 10:37:34;;;;;;;5.97;5.30;;;;;;;27.02;19.46;95582.81;5069415;28;20081;-79
2024/02/21 10:40:01;;;;;;;5.45;4.85;;;;;;;27.60;18.46;95584.41;5086627;28;20047;-79
2024/02/21 10:42:34;;;;;;;9.32;6.88;;;;;;;28.54;17.78;95578.59;5086851;28;20028;-80
2024/02/21 10:45:02;;;;;;;6.28;5.05;;;;;;;28.20;17.73;95567.06;5086818;28;20395;-80
2024/02/21 10:47:28;;;;;;;8.80;6.05;;;;;;;27.79;18.14;95569.00;5086326;28;20104;-79
2024/02/21 10:50:02;;;;;;;6.05;5.45;;;;;;;26.84;18.81;95558.94;5068480;28;20475;-79
2024/02/21 10:52:39;;;;;;;5.80;5.20;;;;;;;26.39;19.25;95552.97;5068097;28;20028;-80
2024/02/21 10:55:10;;;;;;;5.90;5.05;;;;;;;27.85;17.73;95557.59;5087716;28;20020;-79
2024/02/21 10:57:37;;;;;;;7.22;5.97;;;;;;;28.62;16.86;95545.53;5086309;28;20032;-80
2024/02/21 11:00:07;;;;;;;6.97;4.70;;;;;;;29.19;15.73;95545.97;5086730;28;20024;-81
2024/02/21 11:02:34;;;;;;;8.85;5.90;;;;;;;29.68;15.39;95534.09;5070323;28;20525;-80
2024/02/21 11:05:00;;;;;;;4.75;3.97;;;;;;;30.64;14.80;95538.19;5087711;28;20035;-79
2024/02/21 11:07:25;;;;;;;5.05;4.00;;;;;;;31.34;13.83;95532.38;5068550;28;20031;-80
2024/02/21 11:09:55;;;;;;;5.18;3.42;;;;;;;31.96;13.72;95533.34;5067734;28;20432;-81
2024/02/21 11:12:21;;;;;;;7.80;4.10;;;;;;;32.60;12.96;95535.09;5086511;28;20129;-79
2024/02/21 11:14:47;;;;;;;5.35;4.10;;;;;;;32.27;12.76;95531.25;5086232;28;20017;-80
2024/02/21 11:17:21;;;;;;;4.13;3.58;;;;;;;30.12;14.08;95523.03;5086100;28;20566;-81
2024/02/21 11:19:47;;;;;;;5.57;4.70;;;;;;;28.53;15.47;95526.16;5086227;28;20448;-79
2024/02/21 11:22:21;;;;;;;6.10;5.50;;;;;;;27.07;16.86;95524.81;5085254;28;20472;-79
2024/02/21 11:24:46;;;;;;;5.60;4.82;;;;;;;25.73;17.89;95513.56;5086501;28;20024;-79
2024/02/21 11:27:13;;;;;;;4.13;3.72;;;;;;;24.66;19.12;95504.97;5085028;28;20023;-79
2024/02/21 11:29:57;;;;;;;5.72;4.57;;;;;;;23.42;20.29;95509.13;5086398;28;20471;-79